Portada
METAR-TAF:

METAR-TAF

Aeroports :

San José, Costa Rica

latitud: 09-57N, longitud: 084-09W, altitud: 994 m

Observació

L'informe es va fer fa 1 hora i 5 minuts, a les 17:00 UTC
Vent 10 kt del Oest/Nord-Oest
Temperatura 25°C
Humitat 61%
Pressió 1018 hPa
Visibilitat 10 km o més
Escasses núvols a una alçada de 4000 ft

METAR: MRPV 221700Z 29010KT 9999 FEW040 25/17 A3006 NOSIG

Hora: 12:05 (18:05 UTC)

Pronòstic

L'informe es va fer fa 1 hora i 5 minuts, a les 17:00 UTC
Pronòstic vàlid del 22 a les 18 UTC al 23 a les 18 UTC
Vent 10 kt del Oest/Nord-Oest
Visibilitat 10 km o més
Núvols disperses a una alçada de 4000 ft
Temporalment
l' 22 a les 20 UTC al 22 a les 23 UTC
Escasses núvols a una alçada de 2500 ft, Cumulus congestus.
xàfecs de pluja
Evolucionant progressivament
l' 23 a les 00 UTC al 23 a les 02 UTC
Vent 8 kt del Est/Sud-Est

TAF: MRPV 221700Z 2218/2318 29010KT 9999 SCT040 TX28/2219Z TN18/2310Z TEMPO 2220/2223 SHRA FEW025TCU BECMG 2300/2302 11008KT

Observacions i pronòstics meteorològics de més de 4000 aeroports (METAR i TAF).

Les estacions disponibles són els punts grocs i vermells al mapa.

Posi el ratolí al punt desitjat per veure el nom de l'estació.

Feu clic per veure les observacions i els pronòstics meteorològics.

Per canviar el mapa: feu clic els botons verds amb una creu de color negre per apropar; al botó verd amb un guió per allunyar la imatge; o en les fletxes verdes per a mapes adjacents.


METAR-TAF: